Time;durP1;ratioP1;P1;durP2;ratioP2;P2;SDS_P1;SDS_P2;PMS_P1;PMS_P2;Temp;Humidity;BMP_temperature;BMP_pressure;BME280_temperature;BME280_humidity;BME280_pressure;Samples;Min_cycle;Max_cycle;Signal;HPM_P1;HPM_P2
2023/09/19 00:00:23;;;;;;;5.40;2.33;;;17.40;99.90;;;;;;5091158;28;20430;-63
2023/09/19 00:03:01;;;;;;;4.50;2.10;;;17.40;99.90;;;;;;5088622;28;20426;-63
2023/09/19 00:05:29;;;;;;;4.63;1.80;;;17.50;99.90;;;;;;5092882;28;20433;-63
2023/09/19 00:07:58;;;;;;;9.20;2.40;;;17.40;99.90;;;;;;5093133;28;20502;-63
2023/09/19 00:10:26;;;;;;;2.90;1.80;;;17.40;99.90;;;;;;5085629;28;20445;-63
2023/09/19 00:12:57;;;;;;;6.00;2.40;;;17.30;99.90;;;;;;5092684;28;20430;-63
2023/09/19 00:15:23;;;;;;;7.00;2.00;;;17.30;99.90;;;;;;5091120;28;20528;-63
2023/09/19 00:17:48;;;;;;;2.57;1.80;;;17.20;99.90;;;;;;5089665;28;20980;-63
2023/09/19 00:20:17;;;;;;;4.00;2.37;;;17.20;99.90;;;;;;5087553;28;20437;-63
2023/09/19 00:22:43;;;;;;;4.50;2.00;;;17.20;99.90;;;;;;5085000;28;20242;-63
2023/09/19 00:25:09;;;;;;;4.40;2.10;;;17.20;99.90;;;;;;5095064;28;20439;-63
2023/09/19 00:27:41;;;;;;;4.33;1.97;;;17.20;99.90;;;;;;5087521;28;20430;-63
2023/09/19 00:30:12;;;;;;;13.30;3.10;;;17.20;99.90;;;;;;5087162;28;20187;-62
2023/09/19 00:32:38;;;;;;;2.60;1.63;;;17.20;99.90;;;;;;5089151;28;21175;-63
2023/09/19 00:35:05;;;;;;;2.80;2.00;;;17.20;99.90;;;;;;5091481;28;20430;-63
2023/09/19 00:37:30;;;;;;;7.67;2.47;;;17.10;99.90;;;;;;5089051;28;20227;-63
2023/09/19 00:39:56;;;;;;;5.30;1.97;;;17.10;99.90;;;;;;5088080;28;20426;-63
2023/09/19 00:42:22;;;;;;;4.17;2.10;;;17.10;99.90;;;;;;5090468;28;20180;-63
2023/09/19 00:44:51;;;;;;;8.70;2.80;;;17.00;99.90;;;;;;5089224;28;20268;-64
2023/09/19 00:47:18;;;;;;;4.70;2.20;;;17.10;99.90;;;;;;5091561;28;20438;-63
2023/09/19 00:49:44;;;;;;;7.03;2.43;;;17.00;99.90;;;;;;5089998;28;20837;-63
2023/09/19 00:52:12;;;;;;;4.43;1.93;;;17.00;99.90;;;;;;5086775;28;20422;-63
2023/09/19 00:54:37;;;;;;;7.40;2.70;;;17.00;99.90;;;;;;5091054;28;20433;-63
2023/09/19 00:57:04;;;;;;;5.40;1.77;;;17.00;99.90;;;;;;5086765;28;20466;-63
2023/09/19 00:59:30;;;;;;;7.30;2.87;;;16.80;99.90;;;;;;5093307;28;20191;-63
2023/09/19 01:01:56;;;;;;;3.70;1.80;;;16.90;99.90;;;;;;5089089;28;20483;-63
2023/09/19 01:04:23;;;;;;;6.87;2.00;;;16.90;99.90;;;;;;5087656;28;20419;-63
2023/09/19 01:06:53;;;;;;;4.63;2.40;;;16.90;99.90;;;;;;5090386;28;20434;-63
2023/09/19 01:09:20;;;;;;;5.60;1.77;;;16.90;99.90;;;;;;5088243;28;20434;-63
2023/09/19 01:11:50;;;;;;;4.07;1.70;;;16.80;99.90;;;;;;5088287;28;20427;-63
2023/09/19 01:14:37;;;;;;;7.00;3.13;;;16.90;99.90;;;;;;5088989;28;20488;-63
2023/09/19 01:17:30;;;;;;;5.60;2.30;;;16.80;99.90;;;;;;5094065;28;20489;-63
2023/09/19 01:20:08;;;;;;;10.30;2.30;;;16.90;99.90;;;;;;5091067;28;20483;-63
2023/09/19 01:23:16;;;;;;;6.77;2.50;;;16.80;99.90;;;;;;5088313;28;20429;-64
2023/09/19 01:26:14;;;;;;;6.90;1.90;;;16.80;99.90;;;;;;5090193;28;20495;-63
2023/09/19 01:29:29;;;;;;;5.67;1.73;;;16.70;99.90;;;;;;5075683;28;20474;-63
2023/09/19 01:32:02;;;;;;;4.57;1.90;;;16.70;99.90;;;;;;5032480;28;20543;-63
2023/09/19 01:35:04;;;;;;;7.03;2.30;;;16.70;99.90;;;;;;5084124;28;20434;-63
2023/09/19 01:37:31;;;;;;;6.80;2.03;;;16.70;99.90;;;;;;5095262;28;20456;-63
2023/09/19 01:40:16;;;;;;;12.60;2.00;;;16.60;99.90;;;;;;5087440;28;20445;-63
2023/09/19 01:42:55;;;;;;;8.30;2.47;;;16.60;99.90;;;;;;5087420;28;20428;-64
2023/09/19 01:45:44;;;;;;;4.03;2.10;;;16.60;99.90;;;;;;5087596;28;20491;-63
2023/09/19 01:48:32;;;;;;;5.53;2.23;;;16.60;99.90;;;;;;5089821;28;20425;-64
2023/09/19 01:51:11;;;;;;;3.80;1.70;;;16.60;99.90;;;;;;5087377;28;20948;-63
2023/09/19 01:53:43;;;;;;;5.33;2.23;;;16.60;99.90;;;;;;5088700;28;21225;-63
2023/09/19 01:56:16;;;;;;;4.00;1.80;;;16.60;99.90;;;;;;5086586;28;20519;-63
2023/09/19 01:58:50;;;;;;;6.77;2.20;;;16.60;99.90;;;;;;5087164;28;20426;-63
2023/09/19 02:01:21;;;;;;;3.90;1.97;;;16.50;99.90;;;;;;5086521;28;20432;-64
2023/09/19 02:03:49;;;;;;;6.10;2.00;;;16.50;99.90;;;;;;5090948;28;20433;-64
2023/09/19 02:06:17;;;;;;;5.17;2.43;;;16.50;99.90;;;;;;5089730;28;20451;-63
2023/09/19 02:08:44;;;;;;;4.50;1.93;;;16.50;99.90;;;;;;5088014;28;20418;-63
2023/09/19 02:11:11;;;;;;;3.50;2.10;;;16.50;99.90;;;;;;5086247;28;20422;-63
2023/09/19 02:13:37;;;;;;;7.00;2.10;;;16.50;99.90;;;;;;5090539;28;20857;-64
2023/09/19 02:16:04;;;;;;;5.10;2.13;;;16.40;99.90;;;;;;5096882;28;20418;-63
2023/09/19 02:18:30;;;;;;;5.77;1.73;;;16.40;99.90;;;;;;5088166;28;20506;-63
2023/09/19 02:20:58;;;;;;;4.00;2.27;;;16.40;99.90;;;;;;5086467;28;20457;-64
2023/09/19 02:23:25;;;;;;;4.43;1.80;;;16.40;99.90;;;;;;5087841;28;20434;-64
2023/09/19 02:25:54;;;;;;;5.77;2.00;;;16.40;99.90;;;;;;5094243;28;20430;-64
2023/09/19 02:28:20;;;;;;;4.77;1.40;;;16.40;99.90;;;;;;5094333;28;21383;-64
2023/09/19 02:30:50;;;;;;;3.80;2.03;;;16.40;99.90;;;;;;5087418;28;20446;-63
2023/09/19 02:33:17;;;;;;;7.73;2.90;;;16.40;99.90;;;;;;5092984;28;20261;-63
2023/09/19 02:35:43;;;;;;;4.13;2.17;;;16.40;99.90;;;;;;5088128;28;20445;-63
2023/09/19 02:38:11;;;;;;;5.90;2.10;;;16.40;99.90;;;;;;5085710;28;20470;-63
2023/09/19 02:40:37;;;;;;;7.23;2.23;;;16.30;99.90;;;;;;5088157;28;21231;-64
2023/09/19 02:43:04;;;;;;;6.93;2.10;;;16.30;99.90;;;;;;5084669;28;21042;-63
2023/09/19 02:45:31;;;;;;;4.53;2.70;;;16.30;99.90;;;;;;5088026;28;20477;-64
2023/09/19 02:47:57;;;;;;;8.23;2.67;;;16.20;99.90;;;;;;5086263;28;20458;-61
2023/09/19 02:50:23;;;;;;;7.90;2.33;;;16.20;99.90;;;;;;5093870;28;20438;-63
2023/09/19 02:52:49;;;;;;;4.40;2.20;;;16.20;99.90;;;;;;5087150;28;20434;-63
2023/09/19 02:55:17;;;;;;;6.23;2.10;;;16.20;99.90;;;;;;5084811;28;21128;-63
2023/09/19 02:57:50;;;;;;;7.03;2.50;;;16.30;99.90;;;;;;5086601;28;20219;-63
2023/09/19 03:00:20;;;;;;;4.30;2.43;;;16.30;99.90;;;;;;5085973;28;20446;-63
2023/09/19 03:02:56;;;;;;;6.70;2.10;;;16.30;99.90;;;;;;5090138;28;20976;-63
2023/09/19 03:05:23;;;;;;;7.73;2.70;;;16.20;99.90;;;;;;5089409;28;21047;-63
2023/09/19 03:07:52;;;;;;;4.77;1.70;;;16.10;99.90;;;;;;5086466;28;21124;-63
2023/09/19 03:10:19;;;;;;;6.90;2.10;;;16.10;99.90;;;;;;5086039;28;21243;-64
2023/09/19 03:12:46;;;;;;;4.67;1.83;;;16.00;99.90;;;;;;5086934;28;20427;-63
2023/09/19 03:15:15;;;;;;;8.40;2.20;;;16.00;99.90;;;;;;5090251;28;20508;-63
2023/09/19 03:17:44;;;;;;;7.63;2.00;;;16.00;99.90;;;;;;5085983;28;21136;-63
2023/09/19 03:20:12;;;;;;;3.27;1.97;;;16.00;99.90;;;;;;5085553;28;20445;-63
2023/09/19 03:22:39;;;;;;;6.10;2.10;;;15.90;99.90;;;;;;5086173;28;20896;-63
2023/09/19 03:25:07;;;;;;;5.90;1.90;;;16.00;99.90;;;;;;5085656;28;20867;-63
2023/09/19 03:27:36;;;;;;;9.60;2.20;;;16.10;99.90;;;;;;5087424;28;20430;-63
2023/09/19 03:30:07;;;;;;;7.50;2.60;;;16.10;99.90;;;;;;5085754;28;20437;-63
2023/09/19 03:32:34;;;;;;;2.80;1.53;;;16.10;99.90;;;;;;5087294;28;21109;-63
2023/09/19 03:35:00;;;;;;;6.00;2.03;;;16.10;99.90;;;;;;5088277;28;20418;-63
2023/09/19 03:37:26;;;;;;;7.60;2.30;;;16.10;99.90;;;;;;5091670;28;20469;-63
2023/09/19 03:39:52;;;;;;;3.97;2.07;;;16.00;99.90;;;;;;5097476;28;20434;-64
2023/09/19 03:42:17;;;;;;;4.03;1.83;;;16.00;99.90;;;;;;5089758;28;20219;-63
2023/09/19 03:44:43;;;;;;;5.40;2.17;;;16.00;99.90;;;;;;5091572;28;20174;-63
2023/09/19 03:47:09;;;;;;;5.33;2.40;;;16.10;99.90;;;;;;5087886;28;20233;-63
2023/09/19 03:49:35;;;;;;;4.83;2.63;;;16.00;99.90;;;;;;5091516;28;20191;-64
2023/09/19 03:52:00;;;;;;;5.30;1.90;;;15.90;99.90;;;;;;5089482;28;20180;-63
2023/09/19 03:54:26;;;;;;;4.80;2.53;;;15.90;99.90;;;;;;5091549;28;20421;-63
2023/09/19 03:56:52;;;;;;;10.10;2.10;;;15.90;99.90;;;;;;5096431;28;20214;-63
2023/09/19 03:59:18;;;;;;;5.17;2.30;;;15.90;99.90;;;;;;5089538;28;20199;-63
2023/09/19 04:01:44;;;;;;;4.90;2.07;;;15.90;99.90;;;;;;5091021;28;20195;-63
2023/09/19 04:04:09;;;;;;;5.03;2.27;;;15.80;99.90;;;;;;5089493;28;20426;-63
2023/09/19 04:06:35;;;;;;;8.33;2.37;;;15.90;99.90;;;;;;5090907;28;20187;-63
2023/09/19 04:09:06;;;;;;;5.77;2.10;;;15.80;99.90;;;;;;5093655;28;20308;-64
2023/09/19 04:11:33;;;;;;;4.00;2.10;;;15.80;99.90;;;;;;5092037;28;20788;-63
2023/09/19 04:13:59;;;;;;;6.70;2.73;;;15.80;99.90;;;;;;5089126;28;20820;-63
2023/09/19 04:16:25;;;;;;;7.20;2.60;;;15.80;99.90;;;;;;5095887;28;20477;-63
2023/09/19 04:18:50;;;;;;;5.50;1.90;;;15.80;99.90;;;;;;5086934;28;20885;-64
2023/09/19 04:21:16;;;;;;;2.93;1.20;;;15.80;99.90;;;;;;5089024;28;20476;-63
2023/09/19 04:23:42;;;;;;;7.33;2.10;;;15.70;99.90;;;;;;5089918;28;20644;-63
2023/09/19 04:26:08;;;;;;;3.80;1.70;;;15.80;99.90;;;;;;5088716;28;20465;-64
2023/09/19 04:28:36;;;;;;;7.60;2.80;;;15.80;99.90;;;;;;5091347;28;20430;-63
2023/09/19 04:31:02;;;;;;;6.63;2.53;;;15.80;99.90;;;;;;5088487;28;20261;-65
2023/09/19 04:33:27;;;;;;;6.90;2.20;;;15.70;99.90;;;;;;5090768;28;20422;-63
2023/09/19 04:35:53;;;;;;;6.47;2.20;;;15.80;99.90;;;;;;5087676;28;20634;-63
2023/09/19 04:38:19;;;;;;;6.20;1.80;;;15.80;99.90;;;;;;5089191;28;20192;-63
2023/09/19 04:40:45;;;;;;;6.27;2.17;;;15.80;99.90;;;;;;5089947;27;20188;-63
2023/09/19 04:43:11;;;;;;;6.30;2.97;;;15.80;99.90;;;;;;5088751;28;20492;-63
2023/09/19 04:45:39;;;;;;;8.87;2.37;;;15.70;99.90;;;;;;5088792;28;20414;-63
2023/09/19 04:48:06;;;;;;;6.10;1.93;;;15.70;99.90;;;;;;5088219;28;20184;-64
2023/09/19 04:50:34;;;;;;;8.40;2.80;;;15.70;99.90;;;;;;5090881;28;20838;-64
2023/09/19 04:53:00;;;;;;;6.40;2.10;;;15.60;99.90;;;;;;5090090;28;20446;-63
2023/09/19 04:55:27;;;;;;;3.87;1.90;;;15.50;99.90;;;;;;5095645;28;20443;-63
2023/09/19 04:57:53;;;;;;;5.03;2.23;;;15.50;99.90;;;;;;5091781;28;20495;-63
2023/09/19 05:00:27;;;;;;;5.33;1.80;;;15.50;99.90;;;;;;5091734;28;21269;-63
2023/09/19 05:02:58;;;;;;;6.00;2.33;;;15.50;99.90;;;;;;5097710;28;20525;-63
2023/09/19 05:05:25;;;;;;;5.80;2.80;;;15.50;99.90;;;;;;5092471;28;20472;-63
2023/09/19 05:07:53;;;;;;;9.80;2.83;;;15.50;99.90;;;;;;5088648;28;20423;-63
2023/09/19 05:10:19;;;;;;;5.70;2.70;;;15.60;99.90;;;;;;5089267;28;20932;-63
2023/09/19 05:12:47;;;;;;;4.90;2.10;;;15.60;99.90;;;;;;5089648;28;20433;-64
2023/09/19 05:15:14;;;;;;;3.53;1.70;;;15.50;99.90;;;;;;5092836;28;20180;-63
2023/09/19 05:17:40;;;;;;;4.70;2.27;;;15.50;99.90;;;;;;5088167;28;20523;-64
2023/09/19 05:20:16;;;;;;;5.87;2.17;;;15.50;99.90;;;;;;5088006;28;20418;-64
2023/09/19 05:22:43;;;;;;;6.77;2.40;;;15.50;99.90;;;;;;5088499;28;21064;-63
2023/09/19 05:25:09;;;;;;;6.13;2.20;;;15.50;99.90;;;;;;5087870;28;20512;-63
2023/09/19 05:27:35;;;;;;;5.80;1.80;;;15.50;99.90;;;;;;5089886;28;20518;-64
2023/09/19 05:30:01;;;;;;;5.10;2.00;;;15.60;99.90;;;;;;5099413;28;20426;-64
2023/09/19 05:32:27;;;;;;;5.77;2.27;;;15.60;99.90;;;;;;5091605;28;20295;-63
2023/09/19 05:34:53;;;;;;;6.10;2.20;;;15.60;99.90;;;;;;5093389;28;20180;-63
2023/09/19 05:37:19;;;;;;;7.10;2.60;;;15.60;99.90;;;;;;5088085;28;20239;-63
2023/09/19 05:39:45;;;;;;;7.57;2.90;;;15.60;99.90;;;;;;5089490;28;20541;-63
2023/09/19 05:42:11;;;;;;;6.87;2.20;;;15.60;99.90;;;;;;5086982;28;20783;-63
2023/09/19 05:44:36;;;;;;;7.80;2.80;;;15.60;99.90;;;;;;5089619;28;20180;-64
2023/09/19 05:47:03;;;;;;;5.20;2.07;;;15.60;99.90;;;;;;5087361;28;20267;-63
2023/09/19 05:49:29;;;;;;;5.13;2.07;;;15.60;99.90;;;;;;5089898;28;20522;-63
2023/09/19 05:51:56;;;;;;;5.70;2.10;;;15.60;99.90;;;;;;5087452;28;20877;-63
2023/09/19 05:54:22;;;;;;;6.00;2.40;;;15.60;99.90;;;;;;5087732;28;20188;-63
2023/09/19 05:56:48;;;;;;;9.10;2.70;;;15.70;99.90;;;;;;5087145;28;20910;-63
2023/09/19 05:59:17;;;;;;;9.13;3.57;;;15.80;99.90;;;;;;5087762;28;20713;-64
2023/09/19 06:01:43;;;;;;;6.90;2.20;;;15.70;99.90;;;;;;5087561;28;20512;-63
2023/09/19 06:04:09;;;;;;;9.90;2.83;;;15.70;99.90;;;;;;5085816;28;20553;-63
2023/09/19 06:06:38;;;;;;;11.00;2.67;;;15.70;99.90;;;;;;5087775;28;20175;-63
2023/09/19 06:09:11;;;;;;;8.00;2.07;;;15.70;99.90;;;;;;5087237;28;20184;-63
2023/09/19 06:11:37;;;;;;;4.93;2.10;;;15.70;99.90;;;;;;5091424;28;20488;-63
2023/09/19 06:14:03;;;;;;;4.63;2.07;;;15.80;99.90;;;;;;5088737;28;20946;-63
2023/09/19 06:16:31;;;;;;;9.47;2.37;;;15.80;99.90;;;;;;5093698;28;20476;-64
2023/09/19 06:18:58;;;;;;;8.20;2.90;;;15.90;99.90;;;;;;5086575;28;21070;-63
2023/09/19 06:21:24;;;;;;;6.70;2.67;;;15.80;99.90;;;;;;5089705;28;20438;-64
2023/09/19 06:23:50;;;;;;;6.53;2.53;;;15.90;99.90;;;;;;5096690;28;20463;-63
2023/09/19 06:26:16;;;;;;;5.10;1.90;;;15.90;99.90;;;;;;5094538;28;20183;-63
2023/09/19 06:28:42;;;;;;;6.23;2.37;;;15.90;99.90;;;;;;5087363;28;20422;-63
2023/09/19 06:31:09;;;;;;;9.30;2.27;;;16.00;99.90;;;;;;5085470;28;20201;-63
2023/09/19 06:33:39;;;;;;;6.80;2.03;;;15.90;99.90;;;;;;5089284;28;20487;-63
2023/09/19 06:36:06;;;;;;;7.57;2.57;;;15.90;99.90;;;;;;5086727;28;20422;-63
2023/09/19 06:38:34;;;;;;;5.10;2.10;;;15.90;99.90;;;;;;5087096;28;20764;-63
2023/09/19 06:41:01;;;;;;;10.73;2.87;;;16.00;99.90;;;;;;5086703;28;20899;-64
2023/09/19 06:43:30;;;;;;;5.37;2.17;;;16.10;99.90;;;;;;5088723;28;20426;-63
2023/09/19 06:45:57;;;;;;;6.97;1.80;;;16.10;99.90;;;;;;5093148;28;20438;-63
2023/09/19 06:48:24;;;;;;;8.07;2.23;;;16.10;99.90;;;;;;5100880;28;20430;-63
2023/09/19 06:50:52;;;;;;;8.33;2.20;;;16.10;99.90;;;;;;5099382;28;20777;-63
2023/09/19 06:53:18;;;;;;;9.17;2.73;;;16.20;99.90;;;;;;5094176;28;20486;-63
2023/09/19 06:55:45;;;;;;;6.87;2.10;;;16.20;99.90;;;;;;5091875;28;20509;-63
2023/09/19 06:58:10;;;;;;;4.00;2.30;;;16.20;99.90;;;;;;5097202;28;20492;-63
2023/09/19 07:00:37;;;;;;;9.30;2.73;;;16.20;99.90;;;;;;5089007;28;20749;-63
2023/09/19 07:03:13;;;;;;;9.00;2.30;;;16.20;99.90;;;;;;5086648;28;20188;-63
2023/09/19 07:05:40;;;;;;;3.57;2.00;;;16.30;99.90;;;;;;5088447;28;20461;-64
2023/09/19 07:08:07;;;;;;;4.00;1.70;;;16.30;99.90;;;;;;5085752;28;20462;-64
2023/09/19 07:10:33;;;;;;;5.63;2.70;;;16.20;99.90;;;;;;5086989;28;20430;-63
2023/09/19 07:13:03;;;;;;;5.57;2.40;;;16.20;99.90;;;;;;5086158;28;20784;-63
2023/09/19 07:15:38;;;;;;;4.50;2.50;;;16.20;99.90;;;;;;5094003;28;21239;-63
2023/09/19 07:18:05;;;;;;;3.80;1.97;;;16.30;99.90;;;;;;5094701;28;20462;-63
2023/09/19 07:20:32;;;;;;;9.90;2.70;;;16.30;99.90;;;;;;5087967;28;20438;-63
2023/09/19 07:23:01;;;;;;;8.23;2.20;;;16.30;99.90;;;;;;5094495;28;20498;-63
2023/09/19 07:25:27;;;;;;;7.00;3.07;;;16.30;99.90;;;;;;5091331;28;20848;-63
2023/09/19 07:27:55;;;;;;;12.20;3.37;;;16.30;99.90;;;;;;5093861;28;20434;-63
2023/09/19 07:30:21;;;;;;;8.97;2.67;;;16.30;99.90;;;;;;5088428;28;20449;-63
2023/09/19 07:32:47;;;;;;;13.17;3.20;;;16.30;99.90;;;;;;5089921;28;20793;-63
2023/09/19 07:35:13;;;;;;;5.57;2.30;;;16.30;99.90;;;;;;5093346;28;20586;-64
2023/09/19 07:37:39;;;;;;;9.13;2.20;;;16.40;99.90;;;;;;5089515;28;20901;-63
2023/09/19 07:40:09;;;;;;;6.80;2.30;;;16.50;99.90;;;;;;5090487;28;20737;-63
2023/09/19 07:42:40;;;;;;;9.90;3.43;;;16.50;99.90;;;;;;5093455;28;20633;-63
2023/09/19 07:45:07;;;;;;;8.50;2.60;;;16.60;99.90;;;;;;5093217;28;20508;-63
2023/09/19 07:47:33;;;;;;;6.40;2.17;;;16.60;99.90;;;;;;5088727;28;20426;-63
2023/09/19 07:50:01;;;;;;;7.73;2.33;;;16.60;99.90;;;;;;5090012;28;20452;-64
2023/09/19 07:52:27;;;;;;;6.87;2.10;;;16.60;99.90;;;;;;5091665;28;20439;-63
2023/09/19 07:54:53;;;;;;;5.27;2.93;;;16.70;99.90;;;;;;5089033;28;20423;-64
2023/09/19 07:57:19;;;;;;;8.53;1.97;;;16.70;99.90;;;;;;5099126;28;20461;-63
2023/09/19 07:59:45;;;;;;;7.27;2.60;;;16.80;99.90;;;;;;5095842;28;20502;-63
2023/09/19 08:02:15;;;;;;;9.00;3.47;;;16.90;99.90;;;;;;5098135;28;20835;-63
2023/09/19 08:04:48;;;;;;;8.20;2.67;;;16.80;99.90;;;;;;5093594;28;20419;-63
2023/09/19 08:07:14;;;;;;;5.33;2.37;;;16.80;99.90;;;;;;5093690;28;20452;-63
2023/09/19 08:09:41;;;;;;;7.53;2.37;;;16.90;99.90;;;;;;5091236;28;20535;-62
2023/09/19 08:12:10;;;;;;;7.20;2.50;;;17.00;99.90;;;;;;5090507;28;20445;-63
2023/09/19 08:14:37;;;;;;;8.30;2.37;;;17.00;99.90;;;;;;5090762;28;20479;-63
2023/09/19 08:17:05;;;;;;;8.13;2.93;;;17.00;99.90;;;;;;5095311;28;20482;-63
2023/09/19 08:19:31;;;;;;;6.07;2.20;;;17.10;99.90;;;;;;5095885;28;20429;-63
2023/09/19 08:22:03;;;;;;;8.33;2.73;;;17.00;99.90;;;;;;5098253;28;20476;-64
2023/09/19 08:24:30;;;;;;;5.93;2.23;;;17.00;99.90;;;;;;5092543;28;20442;-63
2023/09/19 08:26:56;;;;;;;5.90;2.30;;;17.10;99.90;;;;;;5097448;28;20433;-63
2023/09/19 08:29:30;;;;;;;10.27;2.30;;;17.10;99.90;;;;;;5095925;28;20458;-63
2023/09/19 08:31:56;;;;;;;9.73;2.37;;;17.00;99.90;;;;;;5087148;28;20452;-63
2023/09/19 08:34:25;;;;;;;5.93;2.50;;;17.10;99.90;;;;;;5090961;28;20430;-64
2023/09/19 08:36:56;;;;;;;5.67;2.53;;;17.10;99.90;;;;;;5087754;28;20458;-64
2023/09/19 08:39:25;;;;;;;9.30;2.60;;;17.10;99.90;;;;;;5091175;28;20431;-63
2023/09/19 08:42:01;;;;;;;7.10;2.47;;;17.20;99.90;;;;;;5086871;28;20427;-63
2023/09/19 08:44:30;;;;;;;7.30;3.20;;;17.30;99.90;;;;;;5091981;28;20434;-63
2023/09/19 08:47:08;;;;;;;8.13;2.30;;;17.20;99.90;;;;;;5095410;28;20422;-64
2023/09/19 08:49:51;;;;;;;7.70;2.23;;;17.20;99.90;;;;;;5092440;28;20480;-63
2023/09/19 08:52:25;;;;;;;5.77;2.53;;;17.30;99.90;;;;;;5088087;28;21081;-63
2023/09/19 08:54:55;;;;;;;5.60;2.00;;;17.50;99.90;;;;;;5089236;28;20429;-64
2023/09/19 08:57:22;;;;;;;8.40;2.80;;;17.60;99.90;;;;;;5090141;28;20462;-63
2023/09/19 08:59:51;;;;;;;6.87;3.27;;;17.70;99.90;;;;;;5089526;28;20430;-63
2023/09/19 09:02:19;;;;;;;11.03;2.57;;;17.80;99.90;;;;;;5089541;28;20990;-63
2023/09/19 09:04:46;;;;;;;5.50;1.80;;;17.90;99.90;;;;;;5090369;28;20823;-63
2023/09/19 09:07:13;;;;;;;6.60;2.70;;;17.90;99.90;;;;;;5087525;28;20435;-64
2023/09/19 09:09:42;;;;;;;10.10;2.70;;;18.00;99.90;;;;;;5091155;28;20525;-64
2023/09/19 09:12:17;;;;;;;4.60;1.90;;;18.00;99.90;;;;;;5089030;28;20458;-64
2023/09/19 09:14:48;;;;;;;13.03;2.40;;;18.10;99.90;;;;;;5087299;28;20430;-64
2023/09/19 09:17:15;;;;;;;7.07;2.40;;;18.10;99.90;;;;;;5092733;28;20561;-64
2023/09/19 09:19:42;;;;;;;8.53;2.93;;;18.10;99.90;;;;;;5087301;28;20463;-64
2023/09/19 09:22:11;;;;;;;6.50;2.10;;;18.10;99.90;;;;;;5088917;28;20427;-64
2023/09/19 09:24:50;;;;;;;10.07;2.60;;;18.20;99.90;;;;;;5090650;28;20477;-64
2023/09/19 09:27:17;;;;;;;6.60;1.87;;;18.20;99.90;;;;;;5087057;28;20436;-65
2023/09/19 09:29:52;;;;;;;5.90;2.60;;;18.20;99.90;;;;;;5089996;28;20429;-64
2023/09/19 09:32:23;;;;;;;4.90;2.33;;;18.30;99.90;;;;;;5088803;28;20970;-64
2023/09/19 09:34:53;;;;;;;7.40;2.27;;;18.50;99.90;;;;;;5088512;28;20491;-64
2023/09/19 09:37:20;;;;;;;7.70;3.13;;;18.50;99.90;;;;;;5086921;28;20804;-64
2023/09/19 09:39:57;;;;;;;8.50;2.37;;;18.50;99.90;;;;;;5088591;28;20457;-63
2023/09/19 09:42:32;;;;;;;5.50;2.20;;;18.50;99.90;;;;;;5088196;28;20434;-65
2023/09/19 09:45:13;;;;;;;6.40;2.13;;;18.60;99.90;;;;;;5093804;28;21640;-64
2023/09/19 09:47:57;;;;;;;7.73;2.33;;;18.70;99.90;;;;;;5090007;28;20783;-63
2023/09/19 09:53:19;;;;;;;5.33;2.40;;;19.10;99.90;;;;;;5093313;28;20415;-64
2023/09/19 09:56:07;;;;;;;5.23;2.43;;;19.10;99.90;;;;;;5085814;28;20425;-64
2023/09/19 09:58:37;;;;;;;4.03;2.00;;;19.20;99.90;;;;;;5089949;28;21173;-64
2023/09/19 10:01:10;;;;;;;10.00;2.70;;;19.10;99.90;;;;;;5085827;28;20434;-64
2023/09/19 10:03:39;;;;;;;9.40;2.60;;;19.00;99.90;;;;;;5089748;28;20429;-63
2023/09/19 10:06:47;;;;;;;4.07;2.00;;;19.00;99.90;;;;;;5088108;28;20476;-64
2023/09/19 10:09:29;;;;;;;5.00;2.13;;;18.90;99.90;;;;;;5085690;28;20492;-64
2023/09/19 10:12:08;;;;;;;8.23;2.60;;;18.90;99.90;;;;;;5087986;28;20427;-64
2023/09/19 10:14:37;;;;;;;6.67;2.00;;;19.00;99.90;;;;;;5087688;28;20517;-64
2023/09/19 10:17:05;;;;;;;6.67;2.17;;;19.10;99.90;;;;;;5095285;28;20572;-64
2023/09/19 10:19:57;;;;;;;7.77;2.40;;;19.30;99.90;;;;;;5098292;28;20425;-64
2023/09/19 10:22:24;;;;;;;6.17;1.90;;;19.30;99.90;;;;;;5097084;28;20430;-64
2023/09/19 10:24:53;;;;;;;7.20;2.73;;;19.30;99.90;;;;;;5087369;28;20423;-64
2023/09/19 10:27:21;;;;;;;6.23;2.20;;;19.40;99.90;;;;;;5086655;28;20443;-64
2023/09/19 10:29:53;;;;;;;4.13;2.30;;;19.20;99.90;;;;;;5089786;28;20924;-64
2023/09/19 10:32:22;;;;;;;8.47;2.60;;;19.30;99.90;;;;;;5088494;28;20446;-64
2023/09/19 10:34:48;;;;;;;4.60;1.83;;;19.40;99.90;;;;;;5088013;28;20935;-64
2023/09/19 10:37:16;;;;;;;4.13;1.80;;;19.40;99.90;;;;;;5087791;28;21031;-64
2023/09/19 10:39:47;;;;;;;7.30;2.87;;;19.50;99.90;;;;;;5087023;28;20477;-64
2023/09/19 10:42:19;;;;;;;6.03;2.70;;;19.60;99.90;;;;;;5085295;28;20426;-64
2023/09/19 10:44:53;;;;;;;8.00;2.80;;;19.60;99.90;;;;;;5086903;28;20441;-64
2023/09/19 10:47:20;;;;;;;8.30;2.37;;;19.50;99.90;;;;;;5088594;28;20532;-64
2023/09/19 10:49:47;;;;;;;6.33;2.40;;;19.60;99.90;;;;;;5097856;28;20422;-64
2023/09/19 10:52:19;;;;;;;7.80;2.37;;;19.70;99.90;;;;;;5098266;28;20449;-64
2023/09/19 10:54:52;;;;;;;5.60;2.13;;;19.70;99.90;;;;;;5098621;28;20952;-63
2023/09/19 10:57:27;;;;;;;9.10;3.13;;;19.80;99.90;;;;;;5098558;28;21209;-64
2023/09/19 11:03:18;;;;;;;5.73;2.20;;;19.90;99.90;;;;;;5088843;28;20419;-63
2023/09/19 11:06:18;;;;;;;7.27;2.07;;;19.80;99.90;;;;;;5099303;28;20418;-63
2023/09/19 11:08:56;;;;;;;7.60;1.90;;;19.90;99.90;;;;;;5086328;28;21331;-63
2023/09/19 11:11:41;;;;;;;4.80;1.97;;;20.00;99.90;;;;;;5086980;28;20426;-63
2023/09/19 11:14:25;;;;;;;7.83;1.80;;;20.00;99.90;;;;;;5087345;28;21303;-63
2023/09/19 11:17:15;;;;;;;6.77;2.40;;;20.20;99.90;;;;;;5093927;28;20477;-63
2023/09/19 11:22:51;;;;;;;6.27;2.40;;;20.20;99.90;;;;;;5096331;28;20430;-64
2023/09/19 11:25:38;;;;;;;5.70;2.20;;;20.20;99.90;;;;;;5098156;28;20931;-63
2023/09/19 11:28:14;;;;;;;2.70;1.90;;;20.30;99.90;;;;;;5084830;28;20421;-63
2023/09/19 11:30:45;;;;;;;3.73;1.70;;;20.30;99.90;;;;;;5086091;28;20425;-63
2023/09/19 11:33:41;;;;;;;5.97;2.10;;;20.20;99.90;;;;;;5086347;28;20434;-63
2023/09/19 11:36:19;;;;;;;5.87;2.10;;;20.30;99.90;;;;;;5086607;28;20479;-63
2023/09/19 11:38:45;;;;;;;;;;;;;;;;;;;;;
2023/09/19 11:41:27;;;;;;;;;;;;;;;;;;;;;
2023/09/19 11:44:03;;;;;;;7.20;2.40;;;20.50;99.90;;;;;;5086253;28;20184;-63
2023/09/19 11:46:52;;;;;;;5.20;1.80;;;20.60;99.90;;;;;;5088426;28;20487;-61
2023/09/19 11:49:31;;;;;;;2.70;1.77;;;20.60;99.90;;;;;;5083371;28;20431;-63
2023/09/19 11:52:01;;;;;;;3.90;1.87;;;20.70;99.90;;;;;;5092639;28;20469;-63
2023/09/19 11:54:31;;;;;;;8.53;2.20;;;20.80;99.90;;;;;;5089244;28;20940;-63
2023/09/19 11:56:59;;;;;;;8.57;2.30;;;20.70;99.90;;;;;;5096496;28;20523;-63
2023/09/19 11:59:29;;;;;;;4.00;2.07;;;20.60;99.90;;;;;;5092499;28;20492;-63
2023/09/19 12:01:58;;;;;;;7.90;2.20;;;20.60;99.90;;;;;;5096524;28;20419;-63
2023/09/19 12:04:37;;;;;;;7.00;2.27;;;20.60;99.90;;;;;;5091702;28;20430;-63
2023/09/19 12:07:05;;;;;;;4.87;2.37;;;20.60;99.90;;;;;;5090130;28;20420;-64
2023/09/19 12:09:31;;;;;;;5.60;1.90;;;20.70;99.90;;;;;;5090332;28;20434;-63
2023/09/19 12:11:57;;;;;;;5.97;2.10;;;20.70;99.90;;;;;;5090038;28;20819;-64
2023/09/19 12:14:26;;;;;;;4.10;2.13;;;20.80;99.90;;;;;;5089665;28;20421;-63
2023/09/19 12:16:58;;;;;;;4.97;1.93;;;20.80;99.90;;;;;;5095259;28;20513;-63
2023/09/19 12:19:24;;;;;;;4.90;2.27;;;20.80;99.90;;;;;;5091974;28;20455;-64
2023/09/19 12:22:09;;;;;;;4.90;2.13;;;20.70;99.90;;;;;;5090415;28;20436;-63
2023/09/19 12:24:38;;;;;;;4.10;2.00;;;20.80;99.90;;;;;;5089749;28;20503;-63
2023/09/19 12:27:07;;;;;;;5.20;2.37;;;20.80;99.90;;;;;;5089804;28;20441;-63
2023/09/19 12:29:48;;;;;;;5.60;2.20;;;20.70;99.90;;;;;;5092256;28;20426;-63
2023/09/19 12:32:16;;;;;;;3.80;2.10;;;20.70;99.90;;;;;;5089754;28;20754;-63
2023/09/19 12:34:49;;;;;;;4.50;2.17;;;20.80;99.90;;;;;;5089605;28;20430;-63
2023/09/19 12:37:20;;;;;;;4.93;2.00;;;20.80;99.90;;;;;;5089662;28;20536;-63
2023/09/19 12:39:51;;;;;;;4.57;2.17;;;20.90;99.90;;;;;;5090872;28;20432;-64
2023/09/19 12:42:19;;;;;;;4.43;2.00;;;20.90;99.90;;;;;;5088357;28;20430;-63
2023/09/19 12:44:48;;;;;;;6.63;2.77;;;21.00;99.90;;;;;;5091412;28;20430;-63
2023/09/19 12:47:17;;;;;;;4.03;2.00;;;21.10;99.90;;;;;;5089593;28;20986;-63
2023/09/19 12:50:25;;;;;;;4.43;1.83;;;21.20;99.90;;;;;;5089072;28;21089;-63
2023/09/19 12:52:53;;;;;;;5.47;2.33;;;21.20;99.90;;;;;;5068908;28;20438;-64
2023/09/19 12:55:24;;;;;;;7.17;2.60;;;21.20;98.40;;;;;;5089680;28;20485;-64
2023/09/19 12:58:19;;;;;;;5.47;2.00;;;21.20;99.30;;;;;;5089061;28;20466;-64
2023/09/19 13:00:45;;;;;;;3.90;2.40;;;21.20;99.90;;;;;;5089013;28;20746;-63
2023/09/19 13:03:20;;;;;;;4.47;1.70;;;21.30;99.40;;;;;;5089730;28;20430;-63
2023/09/19 13:05:57;;;;;;;3.20;1.90;;;21.30;98.40;;;;;;5088387;28;20425;-63
2023/09/19 13:08:26;;;;;;;3.97;1.70;;;21.30;99.20;;;;;;5090226;28;20438;-63
2023/09/19 13:11:20;;;;;;;4.67;1.97;;;21.30;98.30;;;;;;5089514;28;20433;-63
2023/09/19 13:13:51;;;;;;;3.03;1.70;;;21.20;98.30;;;;;;5088826;28;20426;-64